Time;durP1;ratioP1;P1;durP2;ratioP2;P2;SDS_P1;SDS_P2;PMS_P1;PMS_P2;Temp;Humidity;BMP_temperature;BMP_pressure;BME280_temperature;BME280_humidity;BME280_pressure;Samples;Min_cycle;Max_cycle;Signal;HPM_P1;HPM_P2
2022/03/23 00:02:07;;;;;;;18.00;12.80;;;4.50;99.90;;;;;;4977415;28;20461;-58
2022/03/23 00:04:34;;;;;;;17.10;13.60;;;4.50;99.90;;;;;;4977233;28;20919;-56
2022/03/23 00:07:01;;;;;;;20.93;14.10;;;4.50;99.90;;;;;;4976314;28;20569;-58
2022/03/23 00:09:33;;;;;;;16.30;12.30;;;4.50;99.90;;;;;;4973776;28;20529;-58
2022/03/23 00:12:04;;;;;;;17.67;13.47;;;4.50;99.90;;;;;;4977497;28;20965;-58
2022/03/23 00:14:37;;;;;;;17.03;13.00;;;4.40;99.90;;;;;;4974912;28;20553;-59
2022/03/23 00:17:06;;;;;;;16.50;12.70;;;4.50;99.90;;;;;;4977347;28;20454;-58
2022/03/23 00:19:37;;;;;;;18.20;14.47;;;4.50;99.90;;;;;;4976469;28;20568;-59
2022/03/23 00:22:05;;;;;;;14.70;12.13;;;4.40;99.90;;;;;;4977216;28;20511;-59
2022/03/23 00:24:34;;;;;;;19.33;14.47;;;4.40;99.90;;;;;;4976864;28;20465;-58
2022/03/23 00:27:01;;;;;;;20.33;13.83;;;4.40;99.90;;;;;;4975648;28;20494;-57
2022/03/23 00:29:33;;;;;;;17.60;13.73;;;4.30;99.90;;;;;;4976360;28;20883;-59
2022/03/23 00:31:59;;;;;;;17.70;14.77;;;4.30;99.90;;;;;;4976844;28;20509;-58
2022/03/23 00:34:29;;;;;;;16.83;12.77;;;4.20;99.90;;;;;;4975078;28;20466;-59
2022/03/23 00:37:00;;;;;;;18.20;13.07;;;4.10;99.90;;;;;;4975240;28;20454;-56
2022/03/23 00:39:29;;;;;;;18.93;13.77;;;4.00;99.90;;;;;;4974005;28;20462;-58
2022/03/23 00:41:59;;;;;;;17.57;14.07;;;3.90;99.90;;;;;;4977169;28;20454;-58
2022/03/23 00:44:26;;;;;;;17.53;13.40;;;3.90;99.90;;;;;;4976401;28;20465;-56
2022/03/23 00:46:55;;;;;;;16.33;14.17;;;3.90;99.90;;;;;;4976652;28;20493;-57
2022/03/23 00:49:23;;;;;;;17.37;13.70;;;3.90;99.90;;;;;;4976414;28;20524;-59
2022/03/23 00:51:56;;;;;;;17.10;13.70;;;3.90;99.90;;;;;;4976872;28;20466;-59
2022/03/23 00:54:30;;;;;;;19.00;14.23;;;4.00;99.90;;;;;;4976677;28;20474;-56
2022/03/23 00:56:57;;;;;;;15.70;13.63;;;4.00;99.90;;;;;;4976618;28;20548;-59
2022/03/23 00:59:27;;;;;;;15.80;12.60;;;3.90;99.90;;;;;;4976522;28;20458;-58
2022/03/23 01:01:55;;;;;;;19.10;14.00;;;3.80;99.90;;;;;;4976512;28;20487;-59
2022/03/23 01:04:23;;;;;;;15.63;12.73;;;3.80;99.90;;;;;;4979001;28;20536;-58
2022/03/23 01:06:54;;;;;;;22.60;14.30;;;3.80;99.90;;;;;;4980637;28;20528;-58
2022/03/23 01:09:23;;;;;;;17.70;13.57;;;3.70;99.90;;;;;;4980337;28;20497;-59
2022/03/23 01:11:57;;;;;;;23.43;12.93;;;3.70;99.90;;;;;;4979850;28;20476;-58
2022/03/23 01:14:26;;;;;;;19.20;12.47;;;3.70;99.90;;;;;;4980322;28;20488;-59
2022/03/23 01:16:56;;;;;;;16.67;13.87;;;3.60;99.90;;;;;;4980274;28;20462;-59
2022/03/23 01:19:25;;;;;;;20.57;14.20;;;3.60;99.90;;;;;;4980551;28;20457;-57
2022/03/23 01:21:56;;;;;;;20.10;14.50;;;3.60;99.90;;;;;;4979857;28;20512;-59
2022/03/23 01:24:30;;;;;;;19.50;14.07;;;3.50;99.90;;;;;;4980754;28;20450;-58
2022/03/23 01:27:03;;;;;;;18.90;13.00;;;3.50;99.90;;;;;;4980073;28;20792;-59
2022/03/23 01:29:36;;;;;;;18.70;12.87;;;3.40;99.90;;;;;;4981704;28;20777;-58
2022/03/23 01:32:08;;;;;;;16.93;13.23;;;3.30;99.90;;;;;;4981618;28;20462;-60
2022/03/23 01:34:35;;;;;;;18.10;13.87;;;3.20;99.90;;;;;;4981661;28;20469;-59
2022/03/23 01:37:07;;;;;;;20.67;14.90;;;3.30;99.90;;;;;;4977993;28;20497;-59
2022/03/23 01:39:38;;;;;;;19.30;14.70;;;3.30;99.90;;;;;;4962548;29;20525;-60
2022/03/23 01:42:06;;;;;;;21.07;14.40;;;3.30;99.90;;;;;;4969083;28;20458;-59
2022/03/23 01:44:33;;;;;;;16.40;13.17;;;3.30;99.90;;;;;;4981446;28;20517;-59
2022/03/23 01:47:07;;;;;;;17.37;12.97;;;3.20;99.90;;;;;;4981292;28;20489;-57
2022/03/23 01:49:35;;;;;;;20.40;14.80;;;3.30;99.90;;;;;;4981886;28;20565;-59
2022/03/23 01:52:05;;;;;;;18.33;14.37;;;3.30;99.90;;;;;;4981336;28;20509;-59
2022/03/23 01:54:32;;;;;;;19.37;14.83;;;3.20;99.90;;;;;;4980509;28;20470;-59
2022/03/23 01:57:03;;;;;;;20.33;13.83;;;3.00;99.90;;;;;;4980174;28;20466;-59
2022/03/23 01:59:36;;;;;;;20.07;14.13;;;3.00;99.90;;;;;;4981481;28;20469;-60
2022/03/23 02:02:04;;;;;;;18.10;13.20;;;2.90;1.00;;;;;;4981470;28;20833;-58
2022/03/23 02:04:39;;;;;;;18.03;13.23;;;2.90;1.00;;;;;;4980489;28;20817;-57
2022/03/23 02:07:08;;;;;;;18.53;13.10;;;2.80;1.00;;;;;;4980741;28;20493;-59
2022/03/23 02:09:38;;;;;;;21.50;14.60;;;2.80;1.00;;;;;;4980952;28;20481;-59
2022/03/23 02:12:17;;;;;;;16.17;13.00;;;2.80;1.00;;;;;;4981280;28;20804;-59
2022/03/23 02:14:51;;;;;;;16.60;13.27;;;2.90;1.00;;;;;;4979969;28;20961;-59
2022/03/23 02:17:18;;;;;;;17.73;14.23;;;2.90;1.00;;;;;;4981088;28;20465;-60
2022/03/23 02:19:47;;;;;;;20.30;15.30;;;2.90;1.00;;;;;;4980954;28;20473;-59
2022/03/23 02:22:17;;;;;;;22.47;14.57;;;2.80;1.00;;;;;;4981177;28;20466;-59
2022/03/23 02:24:50;;;;;;;19.10;13.20;;;2.80;1.00;;;;;;4980401;28;20470;-59
2022/03/23 02:27:18;;;;;;;20.83;13.90;;;2.70;1.00;;;;;;4980528;28;20497;-60
2022/03/23 02:29:45;;;;;;;24.77;14.10;;;2.70;1.00;;;;;;4980557;28;20466;-59
2022/03/23 02:32:13;;;;;;;19.30;13.60;;;2.70;1.00;;;;;;4980709;28;20469;-59
2022/03/23 02:34:40;;;;;;;19.93;15.20;;;2.70;1.00;;;;;;4980025;28;20497;-59
2022/03/23 02:37:10;;;;;;;17.20;13.10;;;2.70;1.00;;;;;;4976719;28;20493;-60
2022/03/23 02:39:39;;;;;;;19.80;15.20;;;2.70;1.00;;;;;;4980434;28;20517;-59
2022/03/23 02:42:14;;;;;;;23.37;15.10;;;2.70;1.00;;;;;;4980293;28;20466;-59
2022/03/23 02:44:48;;;;;;;16.47;12.67;;;2.70;1.00;;;;;;4980066;28;20465;-59
2022/03/23 02:47:15;;;;;;;15.20;12.90;;;2.70;1.00;;;;;;4980139;28;20504;-59
2022/03/23 02:49:48;;;;;;;20.13;14.10;;;2.60;1.00;;;;;;4979170;28;20532;-59
2022/03/23 02:52:17;;;;;;;18.00;14.30;;;2.50;1.00;;;;;;4979926;28;20462;-59
2022/03/23 03:03:37;;;;;;;18.43;14.40;;;2.30;1.00;;;;;;4979357;28;20445;-59
2022/03/23 03:06:06;;;;;;;19.30;15.07;;;2.30;1.00;;;;;;4980624;28;20465;-59
2022/03/23 03:08:51;;;;;;;18.20;14.70;;;2.30;1.00;;;;;;4979028;28;20493;-59
2022/03/23 03:11:21;;;;;;;19.97;14.03;;;2.40;1.00;;;;;;4980558;28;20476;-60
2022/03/23 03:13:58;;;;;;;17.93;13.73;;;2.40;1.00;;;;;;4981452;28;20470;-60
2022/03/23 03:16:33;;;;;;;20.20;15.50;;;2.30;1.00;;;;;;4981870;28;20464;-60
2022/03/23 03:19:00;;;;;;;18.70;14.93;;;2.20;1.00;;;;;;4981043;28;20468;-59
2022/03/23 03:21:27;;;;;;;17.87;14.37;;;2.10;1.00;;;;;;4981779;28;20977;-59
2022/03/23 03:23:55;;;;;;;21.47;15.13;;;2.10;1.00;;;;;;4981057;28;20469;-60
2022/03/23 03:26:24;;;;;;;22.33;15.17;;;2.10;1.00;;;;;;4978438;28;20529;-59
2022/03/23 03:28:51;;;;;;;20.30;15.53;;;2.00;1.00;;;;;;4979079;28;20497;-59
2022/03/23 03:31:18;;;;;;;23.50;16.13;;;2.00;1.00;;;;;;4979397;28;20465;-58
2022/03/23 03:33:46;;;;;;;21.50;15.53;;;2.00;1.00;;;;;;4979191;28;20477;-59
2022/03/23 03:36:13;;;;;;;20.23;14.67;;;2.00;1.00;;;;;;4979683;28;20953;-59
2022/03/23 03:38:58;;;;;;;22.70;14.80;;;2.00;1.00;;;;;;4969287;28;20842;-59
2022/03/23 03:41:27;;;;;;;18.80;14.27;;;2.00;1.00;;;;;;4960374;29;20472;-58
2022/03/23 03:43:54;;;;;;;18.30;14.13;;;2.00;1.00;;;;;;4967712;28;20465;-59
2022/03/23 03:46:22;;;;;;;22.10;15.10;;;2.00;1.00;;;;;;4978485;28;20469;-59
2022/03/23 03:48:49;;;;;;;21.00;15.60;;;2.00;1.00;;;;;;4978329;28;21030;-59
2022/03/23 03:51:16;;;;;;;22.10;15.00;;;1.90;1.00;;;;;;4980828;28;20760;-60
2022/03/23 03:53:51;;;;;;;18.20;14.93;;;1.80;1.00;;;;;;4980708;28;20469;-60
2022/03/23 03:56:18;;;;;;;21.30;15.07;;;1.80;1.00;;;;;;4980549;28;20544;-60
2022/03/23 03:58:48;;;;;;;20.83;14.60;;;1.80;1.00;;;;;;4980509;28;20485;-60
2022/03/23 04:01:15;;;;;;;21.40;14.20;;;1.80;1.00;;;;;;4961110;29;20861;-60
2022/03/23 04:03:44;;;;;;;19.50;14.33;;;1.90;1.00;;;;;;4961166;29;20470;-59
2022/03/23 04:06:14;;;;;;;18.17;14.77;;;1.90;1.00;;;;;;4971733;28;20466;-60
2022/03/23 04:08:46;;;;;;;20.70;15.27;;;1.90;1.00;;;;;;4980008;28;20512;-59
2022/03/23 04:11:18;;;;;;;20.87;15.13;;;1.90;1.00;;;;;;4980161;28;20969;-60
2022/03/23 04:13:47;;;;;;;20.73;14.80;;;1.90;1.00;;;;;;4979921;28;20837;-59
2022/03/23 04:16:16;;;;;;;20.03;13.87;;;1.80;1.00;;;;;;4979144;28;20465;-60
2022/03/23 04:18:46;;;;;;;21.63;13.67;;;1.70;1.00;;;;;;4980434;28;20768;-60
2022/03/23 04:21:13;;;;;;;19.90;13.73;;;1.70;1.00;;;;;;4979847;28;20469;-60
2022/03/23 04:23:41;;;;;;;21.20;15.30;;;1.60;1.00;;;;;;4980071;28;20504;-60
2022/03/23 04:26:08;;;;;;;19.27;14.50;;;1.60;1.00;;;;;;4980919;28;20819;-60
2022/03/23 04:28:35;;;;;;;21.87;15.10;;;1.60;1.00;;;;;;4979269;28;20497;-60
2022/03/23 04:33:48;;;;;;;21.50;15.40;;;1.40;1.00;;;;;;4970983;28;20560;-60
2022/03/23 04:36:19;;;;;;;21.73;15.73;;;1.50;1.00;;;;;;4980310;28;20473;-60
2022/03/23 04:38:46;;;;;;;24.20;21.57;;;1.40;1.00;;;;;;4974929;28;20557;-60
2022/03/23 04:41:12;;;;;;;23.47;18.10;;;1.40;1.00;;;;;;4979747;28;20802;-60
2022/03/23 04:43:43;;;;;;;25.00;15.40;;;1.30;1.00;;;;;;4979149;28;20462;-60
2022/03/23 04:46:16;;;;;;;20.83;15.47;;;1.40;1.00;;;;;;4980218;28;20959;-59
2022/03/23 04:48:43;;;;;;;21.30;15.53;;;1.40;1.00;;;;;;4978826;28;20493;-60
2022/03/23 04:51:10;;;;;;;20.40;15.13;;;1.30;1.00;;;;;;4978711;28;20516;-59
2022/03/23 04:53:37;;;;;;;27.07;15.50;;;1.30;1.00;;;;;;4977843;28;20473;-59
2022/03/23 04:56:04;;;;;;;23.03;16.83;;;1.30;1.00;;;;;;4978516;28;20523;-60
2022/03/23 04:58:46;;;;;;;20.17;14.50;;;1.30;1.00;;;;;;4977563;28;20466;-60
2022/03/23 05:01:17;;;;;;;18.60;14.60;;;1.30;1.00;;;;;;4978469;28;20469;-59
2022/03/23 05:03:45;;;;;;;21.70;15.80;;;1.30;1.00;;;;;;4976925;28;20554;-59
2022/03/23 05:06:12;;;;;;;20.60;14.50;;;1.30;1.00;;;;;;4976524;28;20475;-59
2022/03/23 05:08:39;;;;;;;20.70;16.63;;;1.30;1.00;;;;;;4976605;28;20505;-60
2022/03/23 05:11:06;;;;;;;23.90;16.20;;;1.40;1.00;;;;;;4977687;28;20473;-59
2022/03/23 05:13:35;;;;;;;21.43;15.40;;;1.30;1.00;;;;;;4977077;28;20472;-59
2022/03/23 05:16:07;;;;;;;21.00;14.37;;;1.30;1.00;;;;;;4977587;28;20477;-60
2022/03/23 05:18:38;;;;;;;19.83;15.27;;;1.30;1.00;;;;;;4977345;28;20462;-59
2022/03/23 05:21:09;;;;;;;22.63;14.33;;;1.30;1.00;;;;;;4977776;28;20469;-59
2022/03/23 05:23:38;;;;;;;23.63;15.20;;;1.30;1.00;;;;;;4977772;28;20473;-59
2022/03/23 05:26:07;;;;;;;19.03;15.30;;;1.30;19.00;;;;;;4978049;28;20465;-59
2022/03/23 05:28:37;;;;;;;19.27;14.97;;;1.20;1.00;;;;;;4975463;28;20501;-57
2022/03/23 05:31:06;;;;;;;21.00;15.30;;;1.20;1.00;;;;;;4978046;28;20469;-59
2022/03/23 05:33:40;;;;;;;22.20;15.20;;;1.20;1.00;;;;;;4974837;28;20825;-60
2022/03/23 05:36:08;;;;;;;23.47;15.70;;;1.20;1.00;;;;;;4971032;28;20476;-59
2022/03/23 05:38:35;;;;;;;24.77;16.07;;;1.20;1.00;;;;;;4976188;28;20548;-60
2022/03/23 05:41:03;;;;;;;23.33;15.83;;;1.20;23.80;;;;;;4974874;28;20465;-59
2022/03/23 05:43:32;;;;;;;20.43;14.60;;;1.30;68.50;;;;;;4976291;28;20957;-59
2022/03/23 05:46:01;;;;;;;21.60;16.60;;;1.20;37.80;;;;;;4976270;28;20468;-59
2022/03/23 05:48:33;;;;;;;21.37;15.87;;;1.20;29.70;;;;;;4976107;28;20499;-59
2022/03/23 05:51:08;;;;;;;22.97;15.60;;;1.30;33.30;;;;;;4978739;28;20520;-59
2022/03/23 05:53:40;;;;;;;25.00;14.63;;;1.30;30.70;;;;;;4980277;28;20993;-60
2022/03/23 05:56:08;;;;;;;24.13;17.30;;;1.40;47.20;;;;;;4981454;28;20479;-59
2022/03/23 05:58:40;;;;;;;21.53;16.23;;;1.40;44.80;;;;;;4980348;28;20500;-60
2022/03/23 06:01:09;;;;;;;18.30;14.70;;;1.40;44.90;;;;;;4979756;28;20464;-59
2022/03/23 06:03:36;;;;;;;22.30;15.80;;;1.50;45.30;;;;;;4977363;28;20566;-60
2022/03/23 06:06:05;;;;;;;22.03;16.10;;;1.60;41.10;;;;;;4980854;28;20466;-60
2022/03/23 06:08:34;;;;;;;20.83;15.77;;;1.70;31.50;;;;;;4979918;28;20548;-60
2022/03/23 06:11:02;;;;;;;26.60;17.83;;;1.80;21.80;;;;;;4980759;28;20823;-60
2022/03/23 06:13:31;;;;;;;26.40;18.90;;;1.80;8.90;;;;;;4979474;28;20504;-59
2022/03/23 06:16:01;;;;;;;21.77;16.50;;;2.00;1.00;;;;;;4980969;28;20492;-60
2022/03/23 06:18:32;;;;;;;20.63;16.90;;;2.10;1.00;;;;;;4980729;28;20502;-59
2022/03/23 06:21:02;;;;;;;27.97;17.90;;;2.20;1.00;;;;;;4980728;28;20469;-59
2022/03/23 06:23:31;;;;;;;18.63;15.80;;;2.40;1.00;;;;;;4980555;28;20525;-60
2022/03/23 06:25:58;;;;;;;23.20;15.53;;;2.50;1.00;;;;;;4981161;28;20473;-59
2022/03/23 06:28:29;;;;;;;23.50;15.70;;;2.70;1.00;;;;;;4979257;28;20512;-59
2022/03/23 06:30:57;;;;;;;24.13;15.23;;;2.90;1.00;;;;;;4980754;28;20472;-59
2022/03/23 06:33:27;;;;;;;31.13;22.57;;;3.10;1.00;;;;;;4979658;28;20469;-59
2022/03/23 06:35:54;;;;;;;22.03;17.87;;;3.30;1.00;;;;;;4979921;28;20535;-60
2022/03/23 06:38:22;;;;;;;19.83;15.67;;;3.50;1.00;;;;;;4980096;28;20466;-60
2022/03/23 06:40:58;;;;;;;19.80;15.30;;;3.80;1.00;;;;;;4976154;28;20830;-60
2022/03/23 06:43:27;;;;;;;21.43;17.20;;;4.00;1.00;;;;;;4980099;28;20851;-60
2022/03/23 06:45:54;;;;;;;34.00;22.90;;;4.30;1.00;;;;;;4978841;28;20497;-61
2022/03/23 06:48:21;;;;;;;31.10;20.57;;;4.50;1.00;;;;;;4980337;28;21238;-60
2022/03/23 06:50:51;;;;;;;21.43;17.03;;;4.70;1.00;;;;;;4978730;28;20919;-60
2022/03/23 06:53:21;;;;;;;29.13;16.20;;;5.10;1.00;;;;;;4977482;28;20701;-59
2022/03/23 06:55:48;;;;;;;20.43;15.73;;;5.40;1.00;;;;;;4981012;28;20458;-60
2022/03/23 06:58:19;;;;;;;26.80;16.57;;;5.60;1.00;;;;;;4980679;28;20469;-60
2022/03/23 07:00:49;;;;;;;33.00;25.70;;;5.80;99.90;;;;;;4979077;28;20499;-59
2022/03/23 07:03:19;;;;;;;49.13;32.50;;;6.20;99.90;;;;;;4975084;28;20561;-59
2022/03/23 07:05:48;;;;;;;29.57;18.90;;;6.40;99.90;;;;;;4976418;28;20477;-58
2022/03/23 07:11:14;;;;;;;37.33;26.73;;;7.00;99.90;;;;;;4978448;28;20554;-59
2022/03/23 07:13:44;;;;;;;51.30;34.63;;;7.20;99.90;;;;;;4982474;28;20915;-59
2022/03/23 07:16:11;;;;;;;22.20;16.93;;;7.60;99.90;;;;;;4975437;28;20517;-60
2022/03/23 07:18:44;;;;;;;29.53;17.73;;;7.80;99.90;;;;;;4978745;28;20816;-59
2022/03/23 07:21:11;;;;;;;20.20;16.33;;;8.00;99.90;;;;;;4975670;28;20469;-59
2022/03/23 07:23:47;;;;;;;26.93;18.13;;;8.20;99.90;;;;;;4983706;28;20570;-60
2022/03/23 07:26:18;;;;;;;29.93;17.50;;;8.50;99.90;;;;;;4968958;28;20470;-60
2022/03/23 07:28:53;;;;;;;24.37;18.53;;;8.70;99.90;;;;;;4979547;28;20791;-59
2022/03/23 07:31:25;;;;;;;28.53;17.80;;;8.80;99.90;;;;;;4989080;28;20533;-58
2022/03/23 07:33:52;;;;;;;28.67;18.83;;;9.00;99.90;;;;;;4980955;28;20778;-60
2022/03/23 07:36:20;;;;;;;24.00;19.17;;;9.10;99.90;;;;;;4985364;28;20528;-59
2022/03/23 07:38:50;;;;;;;25.73;20.50;;;9.30;99.90;;;;;;4980154;28;20493;-60
2022/03/23 07:41:20;;;;;;;32.30;19.40;;;9.60;99.90;;;;;;4980963;28;20513;-59
2022/03/23 07:43:48;;;;;;;28.93;19.33;;;9.80;99.90;;;;;;4981959;28;20465;-60
2022/03/23 07:46:20;;;;;;;33.63;20.57;;;10.10;99.90;;;;;;4984966;28;20476;-59
2022/03/23 07:48:47;;;;;;;25.80;19.90;;;10.30;99.90;;;;;;4981808;28;20469;-59
2022/03/23 07:51:22;;;;;;;26.70;20.10;;;10.50;99.90;;;;;;4987059;28;20540;-59
2022/03/23 07:54:00;;;;;;;27.87;20.47;;;10.90;99.90;;;;;;4985469;28;20519;-60
2022/03/23 07:56:34;;;;;;;30.53;20.50;;;11.00;99.90;;;;;;4993352;28;20469;-59
2022/03/23 07:59:07;;;;;;;32.97;20.27;;;11.30;99.90;;;;;;4988187;28;20504;-60
2022/03/23 08:01:36;;;;;;;29.20;21.00;;;11.60;99.90;;;;;;4999099;28;20468;-60
2022/03/23 08:04:04;;;;;;;25.97;21.43;;;11.80;99.90;;;;;;4990971;28;20469;-59
2022/03/23 08:06:36;;;;;;;33.10;22.13;;;12.00;99.90;;;;;;4996644;28;20470;-60
2022/03/23 08:09:06;;;;;;;32.20;21.80;;;12.30;99.90;;;;;;4989373;28;20501;-59
2022/03/23 08:11:38;;;;;;;29.83;22.47;;;12.50;99.90;;;;;;4997917;28;20476;-59
2022/03/23 08:14:06;;;;;;;23.53;20.00;;;13.00;99.90;;;;;;4979462;28;20528;-60
2022/03/23 08:16:36;;;;;;;31.93;22.00;;;13.30;99.90;;;;;;4980207;28;20509;-59
2022/03/23 08:19:03;;;;;;;27.77;21.37;;;13.50;99.90;;;;;;4990684;28;20468;-60
2022/03/23 08:21:32;;;;;;;29.13;22.80;;;13.90;99.90;;;;;;4998327;28;20520;-59
2022/03/23 08:24:03;;;;;;;23.87;21.37;;;14.20;99.90;;;;;;4983018;28;20469;-60
2022/03/23 08:26:34;;;;;;;27.53;22.40;;;14.60;99.90;;;;;;4989226;28;20536;-59
2022/03/23 08:29:03;;;;;;;30.03;23.40;;;14.90;99.90;;;;;;4986300;28;20902;-59
2022/03/23 08:31:37;;;;;;;26.80;22.37;;;15.20;99.90;;;;;;4990577;28;20788;-58
2022/03/23 08:34:08;;;;;;;28.37;21.43;;;15.40;99.90;;;;;;4994876;28;20790;-60
2022/03/23 08:36:39;;;;;;;28.70;22.40;;;15.60;99.90;;;;;;4992861;28;20460;-59
2022/03/23 08:39:07;;;;;;;23.97;21.43;;;15.80;99.90;;;;;;4990081;28;20473;-59
2022/03/23 08:41:34;;;;;;;29.63;21.50;;;16.10;99.90;;;;;;4992654;28;20516;-56
2022/03/23 08:44:03;;;;;;;21.20;18.83;;;16.30;99.90;;;;;;4998098;28;20465;-59
2022/03/23 08:46:30;;;;;;;22.00;19.67;;;16.70;99.90;;;;;;4980729;28;20470;-58
2022/03/23 08:49:01;;;;;;;23.30;20.93;;;16.90;99.90;;;;;;4989640;28;20517;-58
2022/03/23 08:51:28;;;;;;;30.20;19.07;;;17.10;99.90;;;;;;4993175;28;20885;-59
2022/03/23 08:53:55;;;;;;;20.93;18.67;;;17.40;99.90;;;;;;4994821;28;20468;-59
2022/03/23 08:56:27;;;;;;;20.17;18.13;;;17.70;99.90;;;;;;4983903;28;20957;-59
2022/03/23 08:58:58;;;;;;;22.17;20.10;;;17.90;99.90;;;;;;4995253;28;20520;-59
2022/03/23 09:01:25;;;;;;;22.27;20.17;;;17.70;99.90;;;;;;4978296;28;20470;-59
2022/03/23 09:03:55;;;;;;;24.77;19.87;;;17.50;99.90;;;;;;4996225;28;20520;-59
2022/03/23 09:06:24;;;;;;;20.60;18.40;;;17.30;99.90;;;;;;4987035;28;20511;-57
2022/03/23 09:08:51;;;;;;;24.57;19.70;;;17.40;99.90;;;;;;4996053;28;20547;-59
2022/03/23 09:11:18;;;;;;;21.40;19.20;;;17.10;99.90;;;;;;4982406;28;20556;-59
2022/03/23 09:13:47;;;;;;;21.23;19.27;;;17.50;99.90;;;;;;4996796;28;20813;-59
2022/03/23 09:16:15;;;;;;;20.03;18.03;;;17.80;99.90;;;;;;4990842;28;21009;-58
2022/03/23 09:18:45;;;;;;;21.70;19.33;;;18.60;99.90;;;;;;4978089;28;20489;-59
2022/03/23 09:21:30;;;;;;;21.27;18.97;;;19.30;99.90;;;;;;4977876;28;20820;-58
2022/03/23 09:24:03;;;;;;;22.23;20.07;;;19.30;99.90;;;;;;4995396;28;20875;-59
2022/03/23 09:26:30;;;;;;;21.23;19.33;;;18.90;99.90;;;;;;4999269;28;20495;-57
2022/03/23 09:29:03;;;;;;;21.83;19.53;;;18.10;99.90;;;;;;5001112;28;20469;-59
2022/03/23 09:31:33;;;;;;;23.43;21.00;;;18.00;99.90;;;;;;4989502;28;20530;-60
2022/03/23 09:34:02;;;;;;;21.53;19.50;;;18.40;99.90;;;;;;4973305;28;20467;-59
2022/03/23 09:39:20;;;;;;;22.27;20.13;;;19.40;99.90;;;;;;4989452;28;20503;-59
2022/03/23 09:41:48;;;;;;;22.03;20.00;;;19.80;99.90;;;;;;5000948;28;20806;-60
2022/03/23 09:44:15;;;;;;;21.20;19.40;;;20.20;99.90;;;;;;4991637;28;20465;-58
2022/03/23 09:46:50;;;;;;;23.77;21.23;;;20.40;99.90;;;;;;4997198;28;20466;-56
2022/03/23 09:49:17;;;;;;;22.23;19.83;;;20.30;99.90;;;;;;4978977;28;20536;-60
2022/03/23 09:51:46;;;;;;;20.13;18.13;;;20.10;99.90;;;;;;4983979;28;20505;-58
2022/03/23 09:54:13;;;;;;;20.97;18.90;;;20.00;99.90;;;;;;4979176;28;20512;-58
2022/03/23 09:56:46;;;;;;;25.70;19.90;;;20.20;99.90;;;;;;4976182;28;20506;-58
2022/03/23 09:59:13;;;;;;;21.27;19.30;;;20.50;99.90;;;;;;4970021;28;20481;-59
2022/03/23 10:02:13;;;;;;;20.33;18.53;;;20.60;99.90;;;;;;4972187;28;20526;-60
2022/03/23 10:05:13;;;;;;;20.80;18.70;;;21.10;99.90;;;;;;4965989;28;20931;-60
2022/03/23 10:07:50;;;;;;;20.83;18.83;;;21.80;99.90;;;;;;4964546;28;20492;-59
2022/03/23 10:10:55;;;;;;;23.20;20.90;;;21.50;99.90;;;;;;4975476;28;20536;-58
2022/03/23 10:14:02;;;;;;;22.67;20.67;;;21.50;99.90;;;;;;4988721;28;20937;-56
2022/03/23 10:17:29;;;;;;;21.97;19.97;;;21.40;99.90;;;;;;4983282;28;20559;-56
2022/03/23 10:19:59;;;;;;;21.67;19.77;;;21.80;99.90;;;;;;4970739;28;20453;-58
2022/03/23 10:22:29;;;;;;;22.80;20.60;;;21.40;99.90;;;;;;4981755;28;20534;-59
2022/03/23 10:24:56;;;;;;;25.40;21.80;;;22.00;99.90;;;;;;4992391;28;20528;-60
2022/03/23 10:27:25;;;;;;;23.23;20.97;;;22.60;99.90;;;;;;5000069;28;20558;-59
2022/03/23 10:29:55;;;;;;;21.23;19.07;;;22.10;99.90;;;;;;4988413;28;20852;-59
2022/03/23 10:32:35;;;;;;;21.90;19.93;;;22.30;99.90;;;;;;4977513;28;20481;-60
2022/03/23 10:35:02;;;;;;;22.77;20.73;;;22.00;99.90;;;;;;4973234;28;20812;-60
2022/03/23 10:37:35;;;;;;;22.70;20.70;;;22.10;99.90;;;;;;4983172;28;20465;-60
2022/03/23 10:40:08;;;;;;;23.00;21.00;;;22.30;99.90;;;;;;4986616;28;20479;-60
2022/03/23 10:42:44;;;;;;;24.70;22.37;;;22.50;99.90;;;;;;4989362;28;20531;-60
2022/03/23 10:45:16;;;;;;;25.13;22.60;;;22.70;99.90;;;;;;4977038;28;20565;-59
2022/03/23 10:47:48;;;;;;;24.30;22.20;;;22.40;99.90;;;;;;4990146;28;20519;-60
2022/03/23 10:50:21;;;;;;;24.47;22.20;;;22.30;99.90;;;;;;4990009;28;20544;-60
2022/03/23 10:52:56;;;;;;;23.50;21.27;;;22.80;99.90;;;;;;4990055;28;20469;-60
2022/03/23 10:55:48;;;;;;;23.00;20.87;;;22.90;99.90;;;;;;4996748;28;20473;-60
2022/03/23 10:58:24;;;;;;;24.10;21.93;;;22.70;99.90;;;;;;4994468;28;20464;-60
2022/03/23 11:00:55;;;;;;;25.53;22.80;;;22.20;99.90;;;;;;4997482;28;20469;-60
2022/03/23 11:03:43;;;;;;;24.03;21.93;;;22.70;99.90;;;;;;4997946;28;20976;-58
2022/03/23 11:06:12;;;;;;;23.50;21.07;;;23.00;99.90;;;;;;4988400;28;20466;-58
2022/03/23 11:08:44;;;;;;;23.00;20.90;;;23.10;99.90;;;;;;4978695;28;20502;-61
2022/03/23 11:16:50;;;;;;;23.27;20.97;;;24.10;99.90;;;;;;4983719;28;20449;-60
2022/03/23 11:19:23;;;;;;;23.10;21.00;;;23.70;99.90;;;;;;4984706;28;20461;-58
2022/03/23 11:22:05;;;;;;;23.67;21.57;;;23.80;99.90;;;;;;4975860;28;20759;-60
2022/03/23 11:24:36;;;;;;;24.67;22.17;;;24.10;99.90;;;;;;4992540;28;20507;-60
2022/03/23 11:27:16;;;;;;;23.53;21.33;;;23.90;99.90;;;;;;4985762;28;20471;-59
2022/03/23 11:29:46;;;;;;;24.37;21.90;;;23.90;99.90;;;;;;4991291;28;20552;-60
2022/03/23 11:32:14;;;;;;;23.23;21.03;;;23.20;99.90;;;;;;4987395;28;20477;-60
2022/03/23 11:34:48;;;;;;;21.30;19.37;;;23.90;99.90;;;;;;4981180;28;20537;-60
2022/03/23 11:37:19;;;;;;;24.23;21.63;;;24.20;99.90;;;;;;4994060;28;20542;-59
2022/03/23 11:39:48;;;;;;;22.40;20.30;;;24.60;99.90;;;;;;4979505;28;20476;-60
2022/03/23 11:42:17;;;;;;;19.77;17.87;;;24.50;99.90;;;;;;4988778;28;20465;-59
2022/03/23 11:44:46;;;;;;;21.70;19.80;;;24.10;99.90;;;;;;4997706;28;20802;-59
2022/03/23 11:47:32;;;;;;;21.80;19.50;;;23.60;99.90;;;;;;4987951;28;20868;-59
2022/03/23 11:50:20;;;;;;;19.60;17.50;;;23.40;99.90;;;;;;4965555;28;20927;-59
2022/03/23 11:53:02;;;;;;;19.30;17.57;;;23.20;99.90;;;;;;4992403;28;20470;-60
2022/03/23 11:55:39;;;;;;;19.70;17.80;;;22.90;99.90;;;;;;4998358;28;20465;-60
2022/03/23 11:58:18;;;;;;;17.90;16.20;;;22.90;99.90;;;;;;4971819;28;20470;-59
2022/03/23 12:00:53;;;;;;;19.17;17.13;;;23.20;99.90;;;;;;4975765;28;20734;-59
2022/03/23 12:03:59;;;;;;;18.53;16.83;;;23.80;99.90;;;;;;4983021;28;20469;-59
2022/03/23 12:06:40;;;;;;;16.93;15.53;;;23.90;99.90;;;;;;4973133;28;20473;-57
2022/03/23 12:09:29;;;;;;;15.27;13.93;;;24.00;99.90;;;;;;4974990;28;20536;-60
2022/03/23 12:11:57;;;;;;;18.60;16.80;;;24.20;99.90;;;;;;4968217;28;21019;-60
2022/03/23 12:14:31;;;;;;;16.77;15.13;;;24.20;99.90;;;;;;4983423;28;20461;-59
2022/03/23 12:17:23;;;;;;;17.00;15.40;;;24.20;99.90;;;;;;4994915;28;20457;-59
2022/03/23 12:20:14;;;;;;;16.07;14.47;;;24.40;99.90;;;;;;4979794;28;20473;-59
2022/03/23 12:23:19;;;;;;;17.17;15.57;;;24.40;99.90;;;;;;4992049;28;20465;-59
2022/03/23 12:26:12;;;;;;;16.23;14.80;;;24.60;99.90;;;;;;4987928;28;20462;-62
2022/03/23 12:28:44;;;;;;;18.90;17.13;;;24.30;99.90;;;;;;4945070;28;20477;-62
2022/03/23 12:31:16;;;;;;;17.93;16.13;;;24.30;99.90;;;;;;4982889;28;20494;-62
2022/03/23 12:34:07;;;;;;;18.47;16.63;;;24.00;99.90;;;;;;4969523;28;20499;-62
2022/03/23 12:39:51;;;;;;;17.30;15.50;;;23.60;99.90;;;;;;4992432;28;20559;-63
2022/03/23 12:42:24;;;;;;;17.37;15.80;;;24.10;99.90;;;;;;4976736;28;20458;-63
2022/03/23 12:45:07;;;;;;;17.33;15.67;;;24.30;99.90;;;;;;4976184;28;20549;-63
2022/03/23 12:47:37;;;;;;;18.57;16.87;;;24.50;99.90;;;;;;4993043;28;20467;-63
2022/03/23 12:58:39;;;;;;;17.80;15.90;;;23.80;99.90;;;;;;4982135;28;20838;-63
2022/03/23 13:01:11;;;;;;;15.97;14.30;;;24.40;99.90;;;;;;4973135;28;20461;-63
2022/03/23 13:04:00;;;;;;;18.90;17.03;;;24.40;99.90;;;;;;4983776;28;20471;-62
2022/03/23 13:06:39;;;;;;;17.87;16.17;;;24.10;99.90;;;;;;4969769;28;20470;-62
2022/03/23 13:09:26;;;;;;;18.57;16.77;;;24.40;99.90;;;;;;4989352;28;20484;-62
2022/03/23 13:11:58;;;;;;;17.27;15.57;;;24.80;99.90;;;;;;4989083;28;20500;-62
2022/03/23 13:14:27;;;;;;;18.10;16.30;;;24.70;99.90;;;;;;4975157;28;20565;-62
2022/03/23 13:16:58;;;;;;;18.17;16.40;;;24.20;99.90;;;;;;4982802;28;20529;-62
2022/03/23 13:19:26;;;;;;;18.33;16.40;;;24.10;99.90;;;;;;4992044;28;20957;-62
2022/03/23 13:21:55;;;;;;;20.30;16.97;;;24.20;99.90;;;;;;4981828;28;20899;-62
2022/03/23 13:24:29;;;;;;;18.37;16.47;;;24.30;99.90;;;;;;4976542;28;20832;-62
2022/03/23 13:27:03;;;;;;;19.60;17.90;;;24.10;99.90;;;;;;4975866;28;20504;-62
2022/03/23 13:29:33;;;;;;;18.40;16.63;;;24.10;99.90;;;;;;4977278;28;20490;-62
2022/03/23 13:32:05;;;;;;;18.27;16.37;;;24.30;99.90;;;;;;4976764;28;20954;-62
2022/03/23 13:34:36;;;;;;;19.27;17.57;;;23.90;99.90;;;;;;4976340;28;20516;-62